createdAt,value
2023-05-25T00:00:49.797Z,21.50
2023-05-25T00:01:39.411Z,18.50
2023-05-25T00:02:39.744Z,18.50
2023-05-25T00:03:39.459Z,17.60
2023-05-25T00:04:39.497Z,19.50
2023-05-25T00:05:39.244Z,18.90
2023-05-25T00:06:39.441Z,19.60
2023-05-25T00:07:39.224Z,20.00
2023-05-25T00:08:39.239Z,16.80
2023-05-25T00:09:39.250Z,18.60
2023-05-25T00:10:39.319Z,18.80
2023-05-25T00:11:39.311Z,18.40
2023-05-25T00:12:39.233Z,18.50
2023-05-25T00:13:39.210Z,19.50
2023-05-25T00:14:39.187Z,17.60
2023-05-25T00:15:39.254Z,16.70
2023-05-25T00:16:39.187Z,16.40
2023-05-25T00:17:39.175Z,18.60
2023-05-25T00:18:39.016Z,19.50
2023-05-25T00:19:39.111Z,18.20
2023-05-25T00:20:39.308Z,16.50
2023-05-25T00:21:38.988Z,19.00
2023-05-25T00:22:39.152Z,20.30
2023-05-25T00:23:39.125Z,19.40
2023-05-25T00:24:39.114Z,21.00
2023-05-25T00:25:39.094Z,18.40
2023-05-25T00:26:39.067Z,19.20
2023-05-25T00:27:39.049Z,18.50
2023-05-25T00:28:39.117Z,18.80
2023-05-25T00:29:39.082Z,17.00
2023-05-25T00:30:39.119Z,19.20
2023-05-25T00:31:39.040Z,16.60
2023-05-25T00:32:39.067Z,18.10
2023-05-25T00:33:39.106Z,21.50
2023-05-25T00:34:38.874Z,18.40
2023-05-25T00:35:39.059Z,18.10
2023-05-25T00:36:38.971Z,17.90
2023-05-25T00:37:38.964Z,16.50
2023-05-25T00:38:39.041Z,18.20
2023-05-25T00:39:38.960Z,17.40
2023-05-25T00:40:38.948Z,17.50
2023-05-25T00:41:38.796Z,19.70
2023-05-25T00:42:38.874Z,18.30
2023-05-25T00:43:38.870Z,18.80
2023-05-25T00:44:38.939Z,19.20
2023-05-25T00:45:38.905Z,18.50
2023-05-25T00:46:38.937Z,18.70
2023-05-25T00:47:38.989Z,17.40
2023-05-25T00:48:38.854Z,18.20
2023-05-25T00:49:39.006Z,20.20
2023-05-25T00:50:38.841Z,18.60
2023-05-25T00:51:38.815Z,19.20
2023-05-25T00:52:38.835Z,18.10
2023-05-25T00:53:38.835Z,21.30
2023-05-25T00:54:38.751Z,17.30
2023-05-25T00:55:38.842Z,17.20
2023-05-25T00:56:38.772Z,17.40
2023-05-25T00:57:38.729Z,20.30
2023-05-25T00:58:38.725Z,19.20
2023-05-25T00:59:38.725Z,18.90
2023-05-25T01:00:38.836Z,17.00
2023-05-25T01:01:38.797Z,17.60
2023-05-25T01:02:38.929Z,20.20
2023-05-25T01:03:38.828Z,19.50
2023-05-25T01:04:38.675Z,17.60
2023-05-25T01:05:38.696Z,17.70
2023-05-25T01:06:38.780Z,19.80
2023-05-25T01:07:38.615Z,18.60
2023-05-25T01:08:38.683Z,18.20
2023-05-25T01:09:38.665Z,18.00
2023-05-25T01:10:38.657Z,17.70
2023-05-25T01:11:38.744Z,16.40
2023-05-25T01:12:38.600Z,16.20
2023-05-25T01:13:38.589Z,17.10
2023-05-25T01:14:38.591Z,17.90
2023-05-25T01:15:38.586Z,16.60
2023-05-25T01:16:38.705Z,15.90
2023-05-25T01:17:38.652Z,17.90
2023-05-25T01:18:38.534Z,15.10
2023-05-25T01:19:38.539Z,17.50
2023-05-25T01:20:38.389Z,15.80
2023-05-25T01:21:38.520Z,15.80
2023-05-25T01:22:38.604Z,17.70
2023-05-25T01:23:38.510Z,18.50
2023-05-25T01:24:38.498Z,18.50
2023-05-25T01:25:38.493Z,19.30
2023-05-25T01:26:38.476Z,17.70
2023-05-25T01:27:38.542Z,16.20
2023-05-25T01:28:38.515Z,18.00
2023-05-25T01:29:38.414Z,17.60
2023-05-25T01:30:38.430Z,17.70
2023-05-25T01:31:38.417Z,18.30
2023-05-25T01:32:38.429Z,16.80
2023-05-25T01:33:38.488Z,18.90
2023-05-25T01:34:38.347Z,15.80
2023-05-25T01:35:38.409Z,17.20
2023-05-25T01:36:38.413Z,19.60
2023-05-25T01:37:38.337Z,17.70
2023-05-25T01:38:38.385Z,18.20
2023-05-25T01:39:38.389Z,16.60
2023-05-25T01:40:38.317Z,18.80
2023-05-25T01:41:38.404Z,17.60
2023-05-25T01:42:38.328Z,17.10
2023-05-25T01:43:38.326Z,18.00
2023-05-25T01:44:38.406Z,16.40
2023-05-25T01:45:38.315Z,16.30
2023-05-25T01:46:38.413Z,15.20
2023-05-25T01:47:38.417Z,15.60
2023-05-25T01:48:38.293Z,16.00
2023-05-25T01:49:38.354Z,16.00
2023-05-25T01:50:38.263Z,15.00
2023-05-25T01:51:38.167Z,16.30
2023-05-25T01:52:38.235Z,17.60
2023-05-25T01:53:38.210Z,15.50
2023-05-25T01:54:38.162Z,16.70
2023-05-25T01:55:38.208Z,16.00
2023-05-25T01:56:38.021Z,15.70
2023-05-25T01:57:38.187Z,15.10
2023-05-25T01:58:38.162Z,16.60
2023-05-25T01:59:38.188Z,17.40
2023-05-25T02:00:38.102Z,19.00
2023-05-25T02:01:38.249Z,16.20
2023-05-25T02:02:38.303Z,14.60
2023-05-25T02:03:38.171Z,17.50
2023-05-25T02:04:38.105Z,18.30
2023-05-25T02:05:38.100Z,17.20
2023-05-25T02:06:38.109Z,17.00
2023-05-25T02:07:38.124Z,17.80
2023-05-25T02:08:38.119Z,18.60
2023-05-25T02:09:38.078Z,20.20
2023-05-25T02:10:38.061Z,16.70
2023-05-25T02:11:38.045Z,18.30
2023-05-25T02:12:38.025Z,15.90
2023-05-25T02:13:38.008Z,14.90
2023-05-25T02:14:38.075Z,18.80
2023-05-25T02:15:38.002Z,16.20
2023-05-25T02:16:38.033Z,16.80
2023-05-25T02:17:38.042Z,18.60
2023-05-25T02:18:37.993Z,16.70
2023-05-25T02:19:38.067Z,15.90
2023-05-25T02:20:38.063Z,15.30
2023-05-25T02:21:37.926Z,14.10
2023-05-25T02:22:37.972Z,17.30
2023-05-25T02:23:37.865Z,16.90
2023-05-25T02:24:37.849Z,15.90
2023-05-25T02:25:37.910Z,15.20
2023-05-25T02:26:37.826Z,16.90
2023-05-25T02:27:37.810Z,16.20
2023-05-25T02:28:37.876Z,14.50
2023-05-25T02:29:37.770Z,16.90
2023-05-25T02:30:37.825Z,15.40
2023-05-25T02:31:37.902Z,15.20
2023-05-25T02:32:37.801Z,16.30
2023-05-25T02:33:37.857Z,16.80
2023-05-25T02:34:37.754Z,14.20
2023-05-25T02:35:37.741Z,16.10
2023-05-25T02:36:37.648Z,16.40
2023-05-25T02:37:37.697Z,16.40
2023-05-25T02:38:37.757Z,15.50
2023-05-25T02:39:37.672Z,14.90
2023-05-25T02:40:37.671Z,14.40
2023-05-25T02:41:37.646Z,16.20
2023-05-25T02:42:37.642Z,15.10
2023-05-25T02:43:37.649Z,16.20
2023-05-25T02:44:37.637Z,15.30
2023-05-25T02:45:37.544Z,14.60
2023-05-25T02:46:37.674Z,14.90
2023-05-25T02:47:37.579Z,16.40
2023-05-25T02:48:37.522Z,16.20
2023-05-25T02:49:37.426Z,13.70
2023-05-25T02:50:37.404Z,15.70
2023-05-25T02:51:37.487Z,15.80
2023-05-25T02:52:37.386Z,14.70
2023-05-25T02:53:37.349Z,13.90
2023-05-25T02:54:37.569Z,16.70
2023-05-25T02:55:37.537Z,17.30
2023-05-25T02:56:37.390Z,18.90
2023-05-25T02:57:37.460Z,20.60
2023-05-25T02:58:37.261Z,16.70
2023-05-25T02:59:37.386Z,18.80
2023-05-25T03:00:37.568Z,25.90
2023-05-25T03:01:37.457Z,20.90
2023-05-25T03:02:37.401Z,21.50
2023-05-25T03:03:37.548Z,17.30
2023-05-25T03:04:37.335Z,18.30
2023-05-25T03:05:37.457Z,17.60
2023-05-25T03:06:37.393Z,16.60
2023-05-25T03:07:37.386Z,18.30
2023-05-25T03:08:37.442Z,18.10
2023-05-25T03:09:37.336Z,18.70
2023-05-25T03:10:37.145Z,18.70
2023-05-25T03:11:37.189Z,17.10
2023-05-25T03:12:37.261Z,17.40
2023-05-25T03:13:37.255Z,18.70
2023-05-25T03:14:37.235Z,16.80
2023-05-25T03:15:37.083Z,16.60
2023-05-25T03:16:37.313Z,16.10
2023-05-25T03:17:37.373Z,17.50
2023-05-25T03:18:37.109Z,16.70
2023-05-25T03:19:37.073Z,17.20
2023-05-25T03:20:37.166Z,16.50
2023-05-25T03:21:37.089Z,17.80
2023-05-25T03:22:37.241Z,15.50
2023-05-25T03:23:37.147Z,16.80
2023-05-25T03:24:37.012Z,16.30
2023-05-25T03:25:36.969Z,16.10
2023-05-25T03:26:37.096Z,15.60
2023-05-25T03:27:36.985Z,17.30
2023-05-25T03:28:36.990Z,15.80
2023-05-25T03:29:36.989Z,14.80
2023-05-25T03:30:37.150Z,15.80
2023-05-25T03:31:37.163Z,17.30
2023-05-25T03:32:37.071Z,15.30
2023-05-25T03:33:37.134Z,15.10
2023-05-25T03:34:37.076Z,14.80
2023-05-25T03:35:37.014Z,16.20
2023-05-25T03:36:37.024Z,16.30
2023-05-25T03:37:37.031Z,15.00
2023-05-25T03:38:37.015Z,14.40
2023-05-25T03:39:37.105Z,16.80
2023-05-25T03:40:36.967Z,14.60
2023-05-25T03:41:36.954Z,15.40
2023-05-25T03:42:37.023Z,14.70
2023-05-25T03:43:37.013Z,14.60
2023-05-25T03:44:38.366Z,15.00
2023-05-25T03:45:37.029Z,15.70
2023-05-25T03:46:37.075Z,14.30
2023-05-25T03:47:36.988Z,16.00
2023-05-25T03:48:36.889Z,15.50
2023-05-25T03:49:36.893Z,15.80
2023-05-25T03:50:36.858Z,17.80
2023-05-25T03:51:37.008Z,14.10
2023-05-25T03:52:36.910Z,15.50
2023-05-25T03:53:36.936Z,14.20
2023-05-25T03:54:36.963Z,16.40
2023-05-25T03:55:36.858Z,15.70
2023-05-25T03:56:36.908Z,15.60
2023-05-25T03:57:36.798Z,14.60
2023-05-25T03:58:36.829Z,16.20
2023-05-25T03:59:36.777Z,16.10
2023-05-25T04:00:36.872Z,16.50
2023-05-25T04:01:36.738Z,15.00
2023-05-25T04:02:36.890Z,14.30
2023-05-25T04:03:36.825Z,13.80
2023-05-25T04:04:36.837Z,14.80
2023-05-25T04:05:36.559Z,15.10
2023-05-25T04:06:36.579Z,14.50
2023-05-25T04:07:36.548Z,16.00
2023-05-25T04:08:36.537Z,15.60
2023-05-25T04:09:36.506Z,16.00
2023-05-25T04:10:36.747Z,16.20
2023-05-25T04:11:36.676Z,15.40
2023-05-25T04:12:36.683Z,15.40
2023-05-25T04:13:36.671Z,15.50
2023-05-25T04:14:36.597Z,16.70
2023-05-25T04:15:36.577Z,16.40
2023-05-25T04:16:36.518Z,16.90
2023-05-25T04:17:39.195Z,15.70
2023-05-25T04:18:36.640Z,16.20
2023-05-25T04:19:36.435Z,16.30
2023-05-25T04:20:36.653Z,15.40
2023-05-25T04:21:36.620Z,16.00
2023-05-25T04:22:36.379Z,16.70
2023-05-25T04:23:36.383Z,17.70
2023-05-25T04:24:36.364Z,14.10
2023-05-25T04:25:36.343Z,17.20
2023-05-25T04:26:36.384Z,17.20
2023-05-25T04:27:36.398Z,17.10
2023-05-25T04:28:36.480Z,17.10
2023-05-25T04:29:36.345Z,15.40
2023-05-25T04:30:36.289Z,17.00
2023-05-25T04:31:36.606Z,15.60
2023-05-25T04:32:36.466Z,16.20
2023-05-25T04:33:36.474Z,16.80
2023-05-25T04:34:36.451Z,16.20
2023-05-25T04:35:36.425Z,17.10
2023-05-25T04:36:36.318Z,16.90
2023-05-25T04:37:36.253Z,18.20
2023-05-25T04:38:36.285Z,17.00
2023-05-25T04:39:36.264Z,16.30
2023-05-25T04:40:36.245Z,15.10
2023-05-25T04:41:36.229Z,16.00
2023-05-25T04:42:36.476Z,14.80
2023-05-25T04:43:36.340Z,15.80
2023-05-25T04:44:36.197Z,17.10
2023-05-25T04:45:36.216Z,15.40
2023-05-25T04:46:36.113Z,17.60
2023-05-25T04:47:36.251Z,15.50
2023-05-25T04:48:36.192Z,18.20
2023-05-25T04:49:36.158Z,15.80
2023-05-25T04:50:36.122Z,16.70
2023-05-25T04:51:36.173Z,15.60
2023-05-25T04:52:36.180Z,15.40
2023-05-25T04:53:36.115Z,15.90
2023-05-25T04:54:36.317Z,17.60
2023-05-25T04:55:36.016Z,15.30
2023-05-25T04:56:36.026Z,18.60
2023-05-25T04:57:36.190Z,15.70
2023-05-25T04:58:36.070Z,16.10
2023-05-25T04:59:36.164Z,15.90
2023-05-25T05:00:36.015Z,16.20
2023-05-25T05:01:36.219Z,16.10
2023-05-25T05:02:36.225Z,14.30
2023-05-25T05:03:36.047Z,16.50
2023-05-25T05:04:36.144Z,16.80
2023-05-25T05:05:36.060Z,15.80
2023-05-25T05:06:36.064Z,17.20
2023-05-25T05:07:36.147Z,18.10
2023-05-25T05:08:36.150Z,16.50
2023-05-25T05:09:36.157Z,16.80
2023-05-25T05:10:36.136Z,16.30
2023-05-25T05:11:36.038Z,16.90
2023-05-25T05:12:36.028Z,17.70
2023-05-25T05:13:36.006Z,18.10
2023-05-25T05:14:36.461Z,17.90
2023-05-25T05:15:36.006Z,19.70
2023-05-25T05:16:36.111Z,21.10
2023-05-25T05:17:36.011Z,19.40
2023-05-25T05:18:35.966Z,22.30
2023-05-25T05:19:35.993Z,21.60
2023-05-25T05:20:36.088Z,19.40
2023-05-25T05:21:36.009Z,23.70
2023-05-25T05:22:35.927Z,20.70
2023-05-25T05:23:35.998Z,21.60
2023-05-25T05:24:35.938Z,20.90
2023-05-25T05:25:35.900Z,19.60
2023-05-25T05:26:51.872Z,22.10
2023-05-25T05:27:35.880Z,19.60
2023-05-25T05:28:35.973Z,20.50
2023-05-25T05:29:35.872Z,25.20
2023-05-25T05:30:35.796Z,22.80
2023-05-25T05:31:35.824Z,23.20
2023-05-25T05:32:35.891Z,22.70
2023-05-25T05:33:35.831Z,24.00
2023-05-25T05:34:35.874Z,24.30
2023-05-25T05:35:35.789Z,23.20
2023-05-25T05:36:45.291Z,22.80
2023-05-25T05:37:35.830Z,23.30
2023-05-25T05:38:35.909Z,21.60
2023-05-25T05:39:35.707Z,21.70
2023-05-25T05:40:35.773Z,23.20
2023-05-25T05:41:35.824Z,22.00
2023-05-25T05:42:35.807Z,19.00
2023-05-25T05:43:35.723Z,21.30
2023-05-25T05:44:35.691Z,18.90
2023-05-25T05:45:35.673Z,22.80
2023-05-25T05:46:35.704Z,21.40
2023-05-25T05:47:35.778Z,19.00
2023-05-25T05:48:35.642Z,18.50
2023-05-25T05:49:35.602Z,20.10
2023-05-25T05:50:35.657Z,20.60
2023-05-25T05:51:35.636Z,22.30
2023-05-25T05:52:35.595Z,21.60
2023-05-25T05:53:35.631Z,21.30
2023-05-25T05:54:35.525Z,21.20
2023-05-25T05:55:35.661Z,18.90
2023-05-25T05:56:35.480Z,20.20
2023-05-25T05:57:35.537Z,21.30
2023-05-25T05:58:35.520Z,20.40
2023-05-25T05:59:35.521Z,21.70
2023-05-25T06:00:35.495Z,21.90
2023-05-25T06:01:35.589Z,21.20
2023-05-25T06:02:35.648Z,20.10
2023-05-25T06:03:35.570Z,20.20
2023-05-25T06:04:35.457Z,21.20
2023-05-25T06:05:35.526Z,18.80
2023-05-25T06:06:35.387Z,19.40
2023-05-25T06:07:35.462Z,21.30
2023-05-25T06:08:35.353Z,20.50
2023-05-25T06:09:35.417Z,21.10
2023-05-25T06:10:35.480Z,20.30
2023-05-25T06:11:35.434Z,20.90
2023-05-25T06:12:35.433Z,20.00
2023-05-25T06:13:35.380Z,19.70
2023-05-25T06:14:35.342Z,21.50
2023-05-25T06:15:35.474Z,20.60
2023-05-25T06:16:35.400Z,20.70
2023-05-25T06:17:35.398Z,21.20
2023-05-25T06:18:35.356Z,21.60
2023-05-25T06:19:35.338Z,18.70
2023-05-25T06:20:35.459Z,21.10
2023-05-25T06:21:35.303Z,21.50
2023-05-25T06:22:35.278Z,20.90
2023-05-25T06:23:35.324Z,19.60
2023-05-25T06:24:35.290Z,21.50
2023-05-25T06:25:35.331Z,20.70
2023-05-25T06:26:35.290Z,23.30
2023-05-25T06:27:35.259Z,21.10
2023-05-25T06:28:35.239Z,19.20
2023-05-25T06:29:35.225Z,23.00
2023-05-25T06:30:35.212Z,20.70
2023-05-25T06:31:35.314Z,20.00
2023-05-25T06:32:35.270Z,22.10
2023-05-25T06:33:35.226Z,21.00
2023-05-25T06:34:37.969Z,19.40
2023-05-25T06:35:35.215Z,19.70
2023-05-25T06:36:35.213Z,20.10
2023-05-25T06:37:35.267Z,20.20
2023-05-25T06:38:35.183Z,19.60
2023-05-25T06:39:35.156Z,19.70
2023-05-25T06:40:35.200Z,20.60
2023-05-25T06:41:35.163Z,21.70
2023-05-25T06:42:35.123Z,21.00
2023-05-25T06:43:35.069Z,19.80
2023-05-25T06:44:35.138Z,20.60
2023-05-25T06:45:35.111Z,19.20
2023-05-25T06:46:35.124Z,20.50
2023-05-25T06:47:35.196Z,19.10
2023-05-25T06:48:35.179Z,21.00
2023-05-25T06:49:35.101Z,21.90
2023-05-25T06:50:35.086Z,19.70
2023-05-25T06:51:35.097Z,19.60
2023-05-25T06:52:35.065Z,22.00
2023-05-25T06:53:35.112Z,21.60
2023-05-25T06:54:34.994Z,19.60
2023-05-25T06:55:35.055Z,20.70
2023-05-25T06:56:34.934Z,22.60
2023-05-25T06:57:35.007Z,19.20
2023-05-25T06:58:35.041Z,23.70
2023-05-25T06:59:34.954Z,22.00
2023-05-25T07:00:35.036Z,21.70
2023-05-25T07:01:34.918Z,21.60
2023-05-25T07:02:34.928Z,21.70
2023-05-25T07:03:34.931Z,19.70
2023-05-25T07:04:34.938Z,20.60
2023-05-25T07:05:34.992Z,21.10
2023-05-25T07:06:34.836Z,22.60
2023-05-25T07:07:34.841Z,21.90
2023-05-25T07:08:34.852Z,23.60
2023-05-25T07:09:34.836Z,21.60
2023-05-25T07:10:34.892Z,20.70
2023-05-25T07:11:34.894Z,22.30
2023-05-25T07:12:34.788Z,18.00
2023-05-25T07:13:34.750Z,19.80
2023-05-25T07:14:34.801Z,19.90
2023-05-25T07:15:34.771Z,20.80
2023-05-25T07:16:34.986Z,18.20
2023-05-25T07:17:34.865Z,19.10
2023-05-25T07:18:34.734Z,18.70
2023-05-25T07:19:34.728Z,20.30
2023-05-25T07:20:34.812Z,19.30
2023-05-25T07:21:34.821Z,21.00
2023-05-25T07:22:34.724Z,20.60
2023-05-25T07:23:34.697Z,21.30
2023-05-25T07:24:34.645Z,19.90
2023-05-25T07:25:34.679Z,19.80
2023-05-25T07:26:34.640Z,17.50
2023-05-25T07:27:34.674Z,18.50
2023-05-25T07:28:34.757Z,20.60
2023-05-25T07:29:34.604Z,19.40
2023-05-25T07:30:34.682Z,21.50
2023-05-25T07:31:34.681Z,20.90
2023-05-25T07:32:34.576Z,19.40
2023-05-25T07:33:34.643Z,21.80
2023-05-25T07:34:34.631Z,21.20
2023-05-25T07:35:34.633Z,21.90
2023-05-25T07:36:34.619Z,21.20
2023-05-25T07:37:34.606Z,21.20
2023-05-25T07:38:34.665Z,22.00
2023-05-25T07:39:34.644Z,21.50
2023-05-25T07:40:34.517Z,18.50
2023-05-25T07:41:34.554Z,19.90
2023-05-25T07:42:34.543Z,21.60
2023-05-25T07:43:34.447Z,19.30
2023-05-25T07:44:34.569Z,17.90
2023-05-25T07:45:34.425Z,18.50
2023-05-25T07:46:34.398Z,17.80
2023-05-25T07:47:34.405Z,20.30
2023-05-25T07:48:34.478Z,16.20
2023-05-25T07:49:34.455Z,18.40
2023-05-25T07:50:34.364Z,19.00
2023-05-25T07:51:34.359Z,20.60
2023-05-25T07:52:34.343Z,20.50
2023-05-25T07:53:34.416Z,17.70
2023-05-25T07:54:34.451Z,19.60
2023-05-25T07:55:34.379Z,19.60
2023-05-25T07:56:34.319Z,17.80
2023-05-25T07:57:34.352Z,20.90
2023-05-25T07:58:34.304Z,18.20
2023-05-25T07:59:34.339Z,19.10
2023-05-25T08:00:34.311Z,19.80
2023-05-25T08:01:34.382Z,18.80
2023-05-25T08:02:34.392Z,22.20
2023-05-25T08:03:48.302Z,19.10
2023-05-25T08:04:34.358Z,19.40
2023-05-25T08:05:34.319Z,16.90
2023-05-25T08:06:34.395Z,21.40
2023-05-25T08:07:34.232Z,18.60
2023-05-25T08:08:34.207Z,20.20
2023-05-25T08:09:34.194Z,19.40
2023-05-25T08:10:34.183Z,20.80
2023-05-25T08:11:34.243Z,21.50
2023-05-25T08:12:47.842Z,20.40
2023-05-25T08:13:34.137Z,20.30
2023-05-25T08:14:34.129Z,20.20
2023-05-25T08:15:34.153Z,20.50
2023-05-25T08:16:34.210Z,20.30
2023-05-25T08:17:34.126Z,21.60
2023-05-25T08:18:34.102Z,22.80
2023-05-25T08:19:34.098Z,27.60
2023-05-25T08:20:34.202Z,20.80
2023-05-25T08:21:34.802Z,23.20
2023-05-25T08:22:34.081Z,21.30
2023-05-25T08:23:33.998Z,20.90
2023-05-25T08:24:34.062Z,19.20
2023-05-25T08:25:34.048Z,21.80
2023-05-25T08:26:52.317Z,21.20
2023-05-25T08:27:35.919Z,21.50
2023-05-25T08:28:33.959Z,21.20
2023-05-25T08:29:34.014Z,17.40
2023-05-25T08:30:33.994Z,17.80
2023-05-25T08:31:34.066Z,19.90
2023-05-25T08:32:34.073Z,17.90
2023-05-25T08:33:33.920Z,20.40
2023-05-25T08:34:33.906Z,19.40
2023-05-25T08:35:33.974Z,17.80
2023-05-25T08:36:33.856Z,16.80
2023-05-25T08:37:33.889Z,19.80
2023-05-25T08:38:33.841Z,22.10
2023-05-25T08:39:35.034Z,18.10
2023-05-25T08:40:33.910Z,21.20
2023-05-25T08:41:33.865Z,18.60
2023-05-25T08:42:33.802Z,17.40
2023-05-25T08:43:33.822Z,17.80
2023-05-25T08:44:33.824Z,17.10
2023-05-25T08:45:49.322Z,20.80
2023-05-25T08:46:33.821Z,18.40
2023-05-25T08:47:33.983Z,18.70
2023-05-25T08:48:41.014Z,19.10
2023-05-25T08:49:33.912Z,19.20
2023-05-25T08:50:33.787Z,18.60
2023-05-25T08:51:33.816Z,18.80
2023-05-25T08:52:33.742Z,17.70
2023-05-25T08:53:33.688Z,19.20
2023-05-25T08:54:33.776Z,19.20
2023-05-25T08:55:33.642Z,19.80
2023-05-25T08:56:34.672Z,18.30
2023-05-25T08:57:33.657Z,20.20
2023-05-25T08:58:33.744Z,20.10
2023-05-25T08:59:33.667Z,20.50
2023-05-25T09:00:33.594Z,18.10
2023-05-25T09:01:33.637Z,20.20
2023-05-25T09:02:33.747Z,18.70
2023-05-25T09:03:33.746Z,19.70
2023-05-25T09:04:33.683Z,18.30
2023-05-25T09:05:36.041Z,18.40
2023-05-25T09:06:33.590Z,19.30
2023-05-25T09:07:33.598Z,19.90
2023-05-25T09:08:33.582Z,18.50
2023-05-25T09:09:33.507Z,19.30
2023-05-25T09:10:33.576Z,17.60
2023-05-25T09:11:39.628Z,21.00
2023-05-25T09:12:33.628Z,17.60
2023-05-25T09:13:33.535Z,19.40
2023-05-25T09:14:33.515Z,19.00
2023-05-25T09:15:33.593Z,18.70
2023-05-25T09:16:33.529Z,19.90
2023-05-25T09:17:35.927Z,20.30
2023-05-25T09:18:34.523Z,19.10
2023-05-25T09:19:33.555Z,20.10
2023-05-25T09:20:33.572Z,20.20
2023-05-25T09:21:33.546Z,17.70
2023-05-25T09:22:33.391Z,20.90
2023-05-25T09:23:33.484Z,18.40
2023-05-25T09:24:33.405Z,19.30
2023-05-25T09:25:33.407Z,19.20
2023-05-25T09:26:33.397Z,18.20
2023-05-25T09:27:33.378Z,18.60
2023-05-25T09:28:33.328Z,20.70
2023-05-25T09:29:33.468Z,19.90
2023-05-25T09:30:33.380Z,17.20
2023-05-25T09:31:33.313Z,19.40
2023-05-25T09:32:33.504Z,18.50
2023-05-25T09:33:36.179Z,18.90
2023-05-25T09:34:33.328Z,18.00
2023-05-25T09:35:33.340Z,21.50
2023-05-25T09:36:33.330Z,19.50
2023-05-25T09:37:33.385Z,18.70
2023-05-25T09:38:33.500Z,19.90
2023-05-25T09:39:33.398Z,22.10
2023-05-25T09:40:33.303Z,22.00
2023-05-25T09:41:33.226Z,18.60
2023-05-25T09:42:33.286Z,21.30
2023-05-25T09:44:33.198Z,19.80
2023-05-25T09:45:33.187Z,19.90
2023-05-25T09:46:33.305Z,20.30
2023-05-25T09:47:33.252Z,21.30
2023-05-25T09:48:33.152Z,19.00
2023-05-25T09:49:33.173Z,21.50
2023-05-25T09:50:33.173Z,18.40
2023-05-25T09:51:33.305Z,19.70
2023-05-25T09:52:33.182Z,20.90
2023-05-25T09:53:33.094Z,20.40
2023-05-25T09:54:33.093Z,18.90
2023-05-25T09:55:48.153Z,18.70
2023-05-25T09:56:33.086Z,18.70
2023-05-25T09:57:33.170Z,20.10
2023-05-25T09:58:33.181Z,18.30
2023-05-25T09:59:33.005Z,20.00
2023-05-25T10:00:33.013Z,17.40
2023-05-25T10:01:33.140Z,19.00
2023-05-25T10:02:33.039Z,18.80
2023-05-25T10:03:32.985Z,19.10
2023-05-25T10:04:33.128Z,19.40
2023-05-25T10:05:33.009Z,17.50
2023-05-25T10:06:33.050Z,17.60
2023-05-25T10:07:32.958Z,17.10
2023-05-25T10:08:33.000Z,18.70
2023-05-25T10:09:33.020Z,19.00
2023-05-25T10:10:32.962Z,17.40
2023-05-25T10:11:32.948Z,18.40
2023-05-25T10:12:32.903Z,17.80
2023-05-25T10:13:32.923Z,20.80
2023-05-25T10:14:32.895Z,18.20
2023-05-25T10:15:32.975Z,17.60
2023-05-25T10:16:32.950Z,17.90
2023-05-25T10:17:32.975Z,18.00
2023-05-25T10:18:32.823Z,19.60
2023-05-25T10:19:32.889Z,17.30
2023-05-25T10:20:34.905Z,18.40
2023-05-25T10:21:32.834Z,19.50
2023-05-25T10:22:32.817Z,18.20
2023-05-25T10:23:32.794Z,19.60
2023-05-25T10:24:32.783Z,18.40
2023-05-25T10:25:32.863Z,18.10
2023-05-25T10:26:32.753Z,18.10
2023-05-25T10:27:32.736Z,17.20
2023-05-25T10:28:32.730Z,16.20
2023-05-25T10:29:32.727Z,16.60
2023-05-25T10:30:32.831Z,19.60
2023-05-25T10:31:32.967Z,17.70
2023-05-25T10:32:32.804Z,18.70
2023-05-25T10:33:32.688Z,16.80
2023-05-25T10:34:32.718Z,17.50
2023-05-25T10:35:38.755Z,19.40
2023-05-25T10:36:32.677Z,19.60
2023-05-25T10:37:32.673Z,20.10
2023-05-25T10:38:32.603Z,18.00
2023-05-25T10:39:32.613Z,16.80
2023-05-25T10:40:32.707Z,17.50
2023-05-25T10:41:32.680Z,18.40
2023-05-25T10:42:32.599Z,17.60
2023-05-25T10:43:32.616Z,16.70
2023-05-25T10:44:32.594Z,18.60
2023-05-25T10:45:32.658Z,17.10
2023-05-25T10:46:32.709Z,17.90
2023-05-25T10:47:32.536Z,18.50
2023-05-25T10:48:32.509Z,17.30
2023-05-25T10:49:32.496Z,15.40
2023-05-25T10:50:32.544Z,16.90
2023-05-25T10:51:32.518Z,16.00
2023-05-25T10:52:32.580Z,17.60
2023-05-25T10:53:32.470Z,17.70
2023-05-25T10:54:32.442Z,17.10
2023-05-25T10:55:32.432Z,19.00
2023-05-25T10:56:32.565Z,19.00
2023-05-25T10:57:32.466Z,17.60
2023-05-25T10:58:32.476Z,17.30
2023-05-25T10:59:32.400Z,17.30
2023-05-25T11:00:32.547Z,16.30
2023-05-25T11:01:32.567Z,18.50
2023-05-25T11:02:32.597Z,17.30
2023-05-25T11:03:32.506Z,18.00
2023-05-25T11:04:32.451Z,17.60
2023-05-25T11:05:32.362Z,16.50
2023-05-25T11:06:32.329Z,15.00
2023-05-25T11:07:32.370Z,14.90
2023-05-25T11:08:32.473Z,14.80
2023-05-25T11:09:32.332Z,15.10
2023-05-25T11:10:32.344Z,15.70
2023-05-25T11:11:32.355Z,16.00
2023-05-25T11:12:32.359Z,17.20
2023-05-25T11:13:32.452Z,16.40
2023-05-25T11:14:32.367Z,17.10
2023-05-25T11:15:32.336Z,19.50
2023-05-25T11:16:32.253Z,18.70
2023-05-25T11:17:32.268Z,16.90
2023-05-25T11:18:32.370Z,19.10
2023-05-25T11:19:32.252Z,21.00
2023-05-25T11:20:32.316Z,21.80
2023-05-25T11:21:32.287Z,17.60
2023-05-25T11:22:32.224Z,16.80
2023-05-25T11:23:32.311Z,18.10
2023-05-25T11:24:32.297Z,18.60
2023-05-25T11:25:33.201Z,19.80
2023-05-25T11:26:32.166Z,16.30
2023-05-25T11:27:32.229Z,16.20
2023-05-25T11:28:32.139Z,16.50
2023-05-25T11:29:32.264Z,17.20
2023-05-25T11:30:32.153Z,16.10
2023-05-25T11:31:35.839Z,18.10
2023-05-25T11:32:32.239Z,16.10
2023-05-25T11:33:32.118Z,19.90
2023-05-25T11:34:32.050Z,17.10
2023-05-25T11:35:32.228Z,19.00
2023-05-25T11:36:32.079Z,19.10
2023-05-25T11:37:32.201Z,18.10
2023-05-25T11:38:32.000Z,18.40
2023-05-25T11:39:32.029Z,16.80
2023-05-25T11:40:31.979Z,18.20
2023-05-25T11:41:32.046Z,17.50
2023-05-25T11:42:31.946Z,16.90
2023-05-25T11:43:32.009Z,16.60
2023-05-25T11:44:31.993Z,16.20
2023-05-25T11:45:31.985Z,15.70
2023-05-25T11:46:32.083Z,15.80
2023-05-25T11:47:33.602Z,15.80
2023-05-25T11:48:31.914Z,16.70
2023-05-25T11:49:31.905Z,17.10
2023-05-25T11:50:31.893Z,17.10
2023-05-25T11:51:31.885Z,17.10
2023-05-25T11:52:31.965Z,17.50
2023-05-25T11:53:32.500Z,17.90
2023-05-25T11:54:31.837Z,19.50
2023-05-25T11:55:31.813Z,19.30
2023-05-25T11:56:35.616Z,17.60
2023-05-25T11:57:31.936Z,18.40
2023-05-25T11:58:31.841Z,18.00
2023-05-25T11:59:32.698Z,17.40
2023-05-25T12:00:31.792Z,17.90
2023-05-25T12:01:32.048Z,17.20
2023-05-25T12:02:31.947Z,16.60
2023-05-25T12:03:31.924Z,17.90
2023-05-25T12:04:31.829Z,18.10
2023-05-25T12:05:31.851Z,18.20
2023-05-25T12:06:31.715Z,19.00
2023-05-25T12:07:31.766Z,17.40
2023-05-25T12:08:31.769Z,19.00
2023-05-25T12:09:31.707Z,19.60
2023-05-25T12:10:31.732Z,20.00
2023-05-25T12:11:31.674Z,20.20
2023-05-25T12:12:31.671Z,20.80
2023-05-25T12:13:31.760Z,18.80
2023-05-25T12:14:31.624Z,21.40
2023-05-25T12:15:31.652Z,22.70
2023-05-25T12:16:31.695Z,19.10
2023-05-25T12:17:31.625Z,19.10
2023-05-25T12:18:31.685Z,19.00
2023-05-25T12:19:31.684Z,18.50
2023-05-25T12:20:31.655Z,19.50
2023-05-25T12:21:31.571Z,19.30
2023-05-25T12:22:31.583Z,19.80
2023-05-25T12:23:31.640Z,17.30
2023-05-25T12:24:31.659Z,17.90
2023-05-25T12:25:38.742Z,18.00
2023-05-25T12:26:31.506Z,17.50
2023-05-25T12:27:31.579Z,18.70
2023-05-25T12:28:31.462Z,20.50
2023-05-25T12:29:31.514Z,19.00
2023-05-25T12:30:31.622Z,19.00
2023-05-25T12:31:31.622Z,16.80
2023-05-25T12:32:31.527Z,20.20
2023-05-25T12:33:31.483Z,17.70
2023-05-25T12:34:31.480Z,19.00
2023-05-25T12:35:31.542Z,18.50
2023-05-25T12:36:31.382Z,17.70
2023-05-25T12:37:31.369Z,18.00
2023-05-25T12:38:31.363Z,19.50
2023-05-25T12:39:31.378Z,17.50
2023-05-25T12:40:31.456Z,18.30
2023-05-25T12:41:31.401Z,19.90
2023-05-25T12:42:31.347Z,20.20
2023-05-25T12:43:31.218Z,18.90
2023-05-25T12:44:31.506Z,18.40
2023-05-25T12:45:31.293Z,20.00
2023-05-25T12:46:31.416Z,20.60
2023-05-25T12:47:31.190Z,17.80
2023-05-25T12:48:31.277Z,20.30
2023-05-25T12:49:31.171Z,20.10
2023-05-25T12:50:31.784Z,18.70
2023-05-25T12:51:31.260Z,20.50
2023-05-25T12:52:31.177Z,20.00
2023-05-25T12:53:31.406Z,16.90